createdAt,value
2022-12-18T00:01:17.589Z,1.66
2022-12-18T00:03:45.384Z,1.74
2022-12-18T00:06:14.802Z,1.80
2022-12-18T00:08:42.760Z,1.90
2022-12-18T00:11:12.834Z,1.97
2022-12-18T00:13:40.161Z,2.01
2022-12-18T00:16:10.594Z,2.02
2022-12-18T00:18:38.223Z,2.03
2022-12-18T00:21:08.530Z,2.01
2022-12-18T00:23:37.294Z,2.01
2022-12-18T00:26:07.203Z,2.04
2022-12-18T00:28:34.699Z,2.09
2022-12-18T00:31:13.378Z,2.14
2022-12-18T00:33:40.834Z,2.22
2022-12-18T00:36:12.519Z,2.28
2022-12-18T00:38:39.412Z,2.35
2022-12-18T00:41:08.290Z,2.41
2022-12-18T00:43:35.591Z,2.44
2022-12-18T00:46:02.901Z,2.50
2022-12-18T00:48:29.731Z,2.53
2022-12-18T00:50:56.415Z,2.55
2022-12-18T00:53:23.128Z,2.58
2022-12-18T00:55:49.760Z,2.64
2022-12-18T00:58:17.735Z,2.68
2022-12-18T01:00:44.996Z,2.71
2022-12-18T01:03:14.950Z,2.76
2022-12-18T01:05:42.861Z,2.77
2022-12-18T01:08:09.610Z,2.80
2022-12-18T01:10:36.309Z,2.77
2022-12-18T01:13:03.102Z,2.75
2022-12-18T01:15:29.758Z,2.74
2022-12-18T01:17:56.446Z,2.71
2022-12-18T01:20:23.177Z,2.68
2022-12-18T01:22:49.889Z,2.68
2022-12-18T01:25:16.642Z,2.66
2022-12-18T01:27:43.371Z,2.67
2022-12-18T01:30:10.538Z,2.67
2022-12-18T01:32:37.193Z,2.65
2022-12-18T01:35:04.563Z,2.66
2022-12-18T01:37:31.237Z,2.69
2022-12-18T01:39:57.905Z,2.72
2022-12-18T01:42:24.664Z,2.72
2022-12-18T01:44:59.258Z,2.73
2022-12-18T01:47:25.810Z,2.72
2022-12-18T01:49:53.638Z,2.69
2022-12-18T01:52:22.323Z,2.66
2022-12-18T01:54:52.349Z,2.62
2022-12-18T01:57:19.280Z,2.58
2022-12-18T01:59:50.994Z,2.56
2022-12-18T02:02:18.191Z,2.55
2022-12-18T02:04:49.349Z,2.55
2022-12-18T02:07:42.485Z,2.55
2022-12-18T02:10:16.593Z,2.54
2022-12-18T02:13:04.024Z,2.55
2022-12-18T02:16:15.827Z,2.55
2022-12-18T02:18:48.763Z,2.60
2022-12-18T02:21:40.315Z,2.62
2022-12-18T02:24:25.288Z,2.63
2022-12-18T02:26:58.096Z,2.66
2022-12-18T02:29:33.711Z,2.73
2022-12-18T02:32:05.641Z,2.80
2022-12-18T02:34:36.170Z,2.86
2022-12-18T02:37:06.935Z,2.89
2022-12-18T02:39:35.284Z,2.97
2022-12-18T02:42:08.705Z,3.05
2022-12-18T02:44:47.381Z,3.15
2022-12-18T02:47:17.867Z,3.22
2022-12-18T02:49:44.550Z,3.28
2022-12-18T02:52:45.349Z,3.34
2022-12-18T02:55:30.693Z,3.48
2022-12-18T02:57:59.630Z,3.53
2022-12-18T03:03:06.519Z,3.59
2022-12-18T03:05:42.731Z,3.61
2022-12-18T03:08:16.669Z,3.65
2022-12-18T03:11:05.108Z,3.74
2022-12-18T03:13:37.231Z,3.76
2022-12-18T03:16:06.237Z,3.79
2022-12-18T03:18:38.776Z,3.81
2022-12-18T03:21:08.377Z,3.84
2022-12-18T03:23:43.863Z,3.88
2022-12-18T03:26:14.045Z,3.94
2022-12-18T03:28:50.564Z,3.93
2022-12-18T03:31:20.194Z,3.92
2022-12-18T03:33:56.517Z,3.92
2022-12-18T03:36:24.946Z,3.94
2022-12-18T03:38:52.275Z,3.93
2022-12-18T03:41:21.867Z,3.90
2022-12-18T03:44:09.417Z,3.92
2022-12-18T03:46:52.177Z,3.89
2022-12-18T03:49:27.953Z,3.88
2022-12-18T03:52:18.837Z,3.89
2022-12-18T03:54:47.305Z,3.92
2022-12-18T03:57:22.356Z,3.92
2022-12-18T03:59:54.597Z,3.93
2022-12-18T04:02:23.837Z,3.93
2022-12-18T04:04:54.179Z,3.93
2022-12-18T04:07:22.419Z,3.91
2022-12-18T04:09:52.092Z,3.94
2022-12-18T04:12:18.798Z,3.96
2022-12-18T04:14:45.968Z,3.99
2022-12-18T04:17:12.649Z,4.03
2022-12-18T04:19:39.633Z,4.06
2022-12-18T04:22:07.755Z,4.09
2022-12-18T04:24:34.534Z,4.12
2022-12-18T04:27:01.185Z,4.13
2022-12-18T04:29:30.287Z,4.14
2022-12-18T04:31:57.122Z,4.16
2022-12-18T04:34:23.758Z,4.20
2022-12-18T04:36:50.550Z,4.22
2022-12-18T04:39:20.046Z,4.21
2022-12-18T04:41:46.686Z,4.23
2022-12-18T04:44:13.332Z,4.26
2022-12-18T04:46:40.162Z,4.28
2022-12-18T04:49:06.884Z,4.29
2022-12-18T04:51:33.519Z,4.29
2022-12-18T04:54:00.173Z,4.30
2022-12-18T04:56:26.776Z,4.35
2022-12-18T04:58:53.470Z,4.38
2022-12-18T05:01:20.478Z,4.40
2022-12-18T05:03:47.415Z,4.41
2022-12-18T05:06:14.257Z,4.46
2022-12-18T05:08:43.940Z,4.47
2022-12-18T05:11:16.591Z,4.49
2022-12-18T05:13:44.770Z,4.51
2022-12-18T05:16:11.870Z,4.54
2022-12-18T05:18:38.732Z,4.52
2022-12-18T05:21:05.803Z,4.53
2022-12-18T05:23:35.721Z,4.54
2022-12-18T05:26:05.482Z,4.52
2022-12-18T05:28:34.367Z,4.51
2022-12-18T05:31:03.372Z,4.51
2022-12-18T05:33:32.325Z,4.50
2022-12-18T05:36:03.762Z,4.51
2022-12-18T05:38:31.843Z,4.51
2022-12-18T05:40:58.718Z,4.49
2022-12-18T05:43:28.538Z,4.50
2022-12-18T05:45:56.346Z,4.50
2022-12-18T05:48:23.422Z,4.51
2022-12-18T05:50:51.737Z,4.50
2022-12-18T05:53:20.865Z,4.51
2022-12-18T05:55:48.428Z,4.51
2022-12-18T05:58:16.246Z,4.52
2022-12-18T06:00:46.793Z,4.53
2022-12-18T06:03:14.462Z,4.53
2022-12-18T06:05:44.073Z,4.52
2022-12-18T06:08:11.618Z,4.52
2022-12-18T06:10:38.775Z,4.52
2022-12-18T06:13:06.700Z,4.54
2022-12-18T06:15:33.950Z,4.53
2022-12-18T06:18:02.059Z,4.54
2022-12-18T06:20:33.615Z,4.53
2022-12-18T06:23:00.892Z,4.54
2022-12-18T06:25:27.602Z,4.55
2022-12-18T06:28:02.496Z,4.56
2022-12-18T06:30:29.099Z,4.55
2022-12-18T06:32:56.918Z,4.54
2022-12-18T06:35:24.376Z,4.55
2022-12-18T06:37:51.157Z,4.53
2022-12-18T06:40:18.017Z,4.52
2022-12-18T06:42:44.666Z,4.50
2022-12-18T06:45:12.458Z,4.49
2022-12-18T06:47:39.107Z,4.46
2022-12-18T06:50:06.616Z,4.43
2022-12-18T06:52:34.573Z,4.38
2022-12-18T06:55:01.634Z,4.37
2022-12-18T06:57:28.467Z,4.32
2022-12-18T06:59:55.507Z,4.29
2022-12-18T07:02:22.274Z,4.29
2022-12-18T07:04:51.834Z,4.22
2022-12-18T07:07:19.510Z,4.22
2022-12-18T07:09:46.131Z,4.17
2022-12-18T07:12:12.802Z,4.15
2022-12-18T07:14:39.433Z,4.12
2022-12-18T07:17:06.580Z,4.08
2022-12-18T07:19:34.023Z,4.09
2022-12-18T07:22:01.419Z,4.05
2022-12-18T07:24:28.581Z,4.08
2022-12-18T07:26:55.342Z,4.05
2022-12-18T07:29:22.042Z,4.08
2022-12-18T07:31:48.830Z,4.07
2022-12-18T07:34:16.334Z,4.07
2022-12-18T07:36:43.412Z,4.11
2022-12-18T07:39:12.426Z,4.12
2022-12-18T07:41:42.490Z,4.15
2022-12-18T07:44:13.641Z,4.20
2022-12-18T07:46:40.236Z,4.24
2022-12-18T07:49:06.968Z,4.27
2022-12-18T07:51:33.696Z,4.29
2022-12-18T07:54:00.281Z,4.30
2022-12-18T07:56:28.607Z,4.32
2022-12-18T07:58:55.652Z,4.33
2022-12-18T08:01:22.497Z,4.32
2022-12-18T08:03:49.918Z,4.34
2022-12-18T08:06:19.258Z,4.34
2022-12-18T08:08:48.377Z,4.32
2022-12-18T08:11:15.160Z,4.31
2022-12-18T08:13:42.277Z,4.30
2022-12-18T08:16:09.729Z,4.32
2022-12-18T08:18:38.131Z,4.32
2022-12-18T08:21:17.211Z,4.34
2022-12-18T08:23:44.394Z,4.34
2022-12-18T08:26:14.658Z,4.35
2022-12-18T08:28:42.362Z,4.33
2022-12-18T08:31:09.348Z,4.32
2022-12-18T08:33:37.652Z,4.29
2022-12-18T08:36:05.607Z,4.27
2022-12-18T08:38:35.561Z,4.27
2022-12-18T08:41:10.892Z,4.28
2022-12-18T08:43:58.065Z,4.29
2022-12-18T08:46:27.527Z,4.31
2022-12-18T08:48:56.295Z,4.31
2022-12-18T08:51:23.259Z,4.32
2022-12-18T08:53:50.446Z,4.32
2022-12-18T08:56:17.879Z,4.34
2022-12-18T08:58:44.947Z,4.34
2022-12-18T09:01:13.629Z,4.35
2022-12-18T09:03:41.426Z,4.37
2022-12-18T09:06:09.714Z,4.40
2022-12-18T09:08:38.103Z,4.40
2022-12-18T09:11:05.119Z,4.41
2022-12-18T09:13:31.810Z,4.44
2022-12-18T09:15:59.721Z,4.46
2022-12-18T09:18:26.428Z,4.46
2022-12-18T09:20:53.978Z,4.49
2022-12-18T09:23:22.038Z,4.51
2022-12-18T09:25:49.400Z,4.51
2022-12-18T09:28:18.620Z,4.50
2022-12-18T09:30:48.571Z,4.50
2022-12-18T09:33:15.841Z,4.49
2022-12-18T09:35:44.474Z,4.50
2022-12-18T09:38:17.235Z,4.50
2022-12-18T09:40:56.357Z,4.50
2022-12-18T09:43:28.311Z,4.53
2022-12-18T09:46:01.189Z,4.55
2022-12-18T09:48:36.890Z,4.56
2022-12-18T09:51:12.822Z,4.58
2022-12-18T09:53:41.432Z,4.59
2022-12-18T09:56:17.225Z,4.59
2022-12-18T09:58:56.308Z,4.62
2022-12-18T10:01:24.964Z,4.64
2022-12-18T10:03:53.065Z,4.65
2022-12-18T10:06:37.456Z,4.63
2022-12-18T10:09:39.886Z,4.64
2022-12-18T10:12:22.371Z,4.65
2022-12-18T10:15:08.356Z,4.65
2022-12-18T10:17:58.009Z,4.65
2022-12-18T10:20:46.403Z,4.65
2022-12-18T10:23:15.864Z,4.66
2022-12-18T10:26:05.409Z,4.67
2022-12-18T10:28:34.387Z,4.68
2022-12-18T10:31:01.292Z,4.68
2022-12-18T10:33:33.951Z,4.70
2022-12-18T10:36:01.357Z,4.73
2022-12-18T10:38:32.967Z,4.76
2022-12-18T10:41:07.231Z,4.79
2022-12-18T10:43:37.540Z,4.82
2022-12-18T10:46:10.550Z,4.85
2022-12-18T10:48:40.547Z,4.86
2022-12-18T10:51:12.844Z,4.90
2022-12-18T10:53:43.702Z,4.92
2022-12-18T10:56:10.660Z,4.95
2022-12-18T10:58:40.225Z,4.97
2022-12-18T11:01:22.141Z,4.99
2022-12-18T11:03:51.714Z,5.00
2022-12-18T11:06:22.781Z,5.01
2022-12-18T11:09:13.203Z,5.04
2022-12-18T11:11:41.224Z,5.05
2022-12-18T11:14:19.341Z,5.06
2022-12-18T11:17:23.933Z,5.09
2022-12-18T11:19:40.945Z,5.11
2022-12-18T11:22:28.844Z,5.13
2022-12-18T11:27:53.921Z,5.19
2022-12-18T11:30:38.908Z,5.21
2022-12-18T11:33:18.662Z,5.24
2022-12-18T11:35:53.537Z,5.28
2022-12-18T11:38:43.812Z,5.32
2022-12-18T11:41:54.968Z,5.36
2022-12-18T11:44:33.890Z,5.39
2022-12-18T11:47:10.561Z,5.41
2022-12-18T11:49:37.410Z,5.45
2022-12-18T11:52:25.324Z,5.48
2022-12-18T11:54:54.214Z,5.49
2022-12-18T11:57:35.957Z,5.51
2022-12-18T12:00:21.309Z,5.52
2022-12-18T12:03:18.264Z,5.56
2022-12-18T12:06:17.876Z,5.61
2022-12-18T12:09:10.564Z,5.64
2022-12-18T12:11:49.377Z,5.67
2022-12-18T12:14:18.746Z,5.67
2022-12-18T12:16:45.417Z,5.71
2022-12-18T12:19:30.603Z,5.75
2022-12-18T12:22:31.723Z,5.79
2022-12-18T12:25:13.513Z,5.84
2022-12-18T12:28:07.587Z,5.89
2022-12-18T12:30:59.366Z,5.94
2022-12-18T12:33:45.559Z,6.00
2022-12-18T12:36:36.363Z,6.06
2022-12-18T12:39:10.914Z,6.11
2022-12-18T12:41:58.287Z,6.14
2022-12-18T12:44:35.722Z,6.18
2022-12-18T12:47:14.804Z,6.22
2022-12-18T12:49:48.769Z,6.28
2022-12-18T12:52:35.913Z,6.33
2022-12-18T12:55:11.537Z,6.38
2022-12-18T12:57:47.041Z,6.41
2022-12-18T13:00:25.305Z,6.47
2022-12-18T13:03:02.570Z,6.55
2022-12-18T13:05:39.705Z,6.59
2022-12-18T13:08:12.619Z,6.63
2022-12-18T13:10:41.789Z,6.65
2022-12-18T13:13:23.798Z,6.69
2022-12-18T13:16:07.377Z,6.75
2022-12-18T13:18:34.673Z,6.79
2022-12-18T13:21:03.222Z,6.83
2022-12-18T13:23:40.048Z,6.86
2022-12-18T13:26:07.396Z,6.87
2022-12-18T13:28:34.339Z,6.90
2022-12-18T13:31:02.745Z,6.91
2022-12-18T13:33:35.754Z,6.92
2022-12-18T13:36:32.898Z,6.94
2022-12-18T13:39:28.668Z,6.98
2022-12-18T13:42:05.529Z,6.99
2022-12-18T13:44:35.958Z,7.00
2022-12-18T13:47:27.067Z,7.04
2022-12-18T13:49:54.307Z,7.05
2022-12-18T13:52:27.169Z,7.06
2022-12-18T13:54:57.272Z,7.07
2022-12-18T13:57:31.406Z,7.07
2022-12-18T14:00:00.630Z,7.09
2022-12-18T14:02:29.653Z,7.12
2022-12-18T14:04:56.958Z,7.12
2022-12-18T14:07:33.116Z,7.14
2022-12-18T14:10:42.213Z,7.15
2022-12-18T14:13:11.714Z,7.18
2022-12-18T14:15:49.042Z,7.19
2022-12-18T14:18:15.580Z,7.20
2022-12-18T14:20:52.501Z,7.22
2022-12-18T14:23:42.973Z,7.24
2022-12-18T14:26:34.182Z,7.25
2022-12-18T14:29:18.993Z,7.29
2022-12-18T14:31:46.206Z,7.31
2022-12-18T14:34:20.257Z,7.33
2022-12-18T14:36:54.909Z,7.36
2022-12-18T14:39:21.822Z,7.40
2022-12-18T14:41:52.906Z,7.41
2022-12-18T14:44:19.623Z,7.42
2022-12-18T14:46:49.344Z,7.44
2022-12-18T14:49:28.021Z,7.46
2022-12-18T14:52:00.678Z,7.48
2022-12-18T14:54:29.039Z,7.51
2022-12-18T14:57:26.141Z,7.53
2022-12-18T14:59:53.899Z,7.55
2022-12-18T15:02:26.661Z,7.57
2022-12-18T15:05:12.689Z,7.58
2022-12-18T15:07:47.252Z,7.60
2022-12-18T15:10:18.484Z,7.61
2022-12-18T15:12:48.218Z,7.63
2022-12-18T15:15:45.950Z,7.67
2022-12-18T15:18:43.062Z,7.68
2022-12-18T15:21:12.043Z,7.71
2022-12-18T15:23:45.155Z,7.74
2022-12-18T15:26:15.588Z,7.76
2022-12-18T15:28:56.823Z,7.79
2022-12-18T15:31:24.414Z,7.81
2022-12-18T15:33:53.156Z,7.82
2022-12-18T15:36:26.125Z,7.85
2022-12-18T15:38:57.890Z,7.90
2022-12-18T15:41:35.749Z,7.93
2022-12-18T15:44:04.296Z,7.92
2022-12-18T15:46:32.109Z,7.92
2022-12-18T15:49:02.264Z,7.91
2022-12-18T15:51:39.136Z,7.89
2022-12-18T15:54:12.281Z,7.89
2022-12-18T15:56:57.073Z,7.88
2022-12-18T15:59:24.770Z,7.88
2022-12-18T16:01:53.977Z,7.88
2022-12-18T16:04:22.742Z,7.89
2022-12-18T16:09:37.573Z,7.95
2022-12-18T16:12:04.886Z,7.96
2022-12-18T16:14:33.960Z,7.98
2022-12-18T16:17:03.173Z,8.01
2022-12-18T16:19:30.489Z,8.01
2022-12-18T16:21:58.959Z,8.03
2022-12-18T16:24:28.531Z,8.03
2022-12-18T16:26:56.972Z,7.99
2022-12-18T16:29:27.834Z,7.97
2022-12-18T16:31:55.791Z,7.96
2022-12-18T16:34:28.541Z,7.98
2022-12-18T16:37:05.731Z,8.02
2022-12-18T16:39:35.131Z,8.03
2022-12-18T16:42:05.984Z,7.99
2022-12-18T16:44:34.169Z,7.99
2022-12-18T16:47:03.203Z,7.97
2022-12-18T16:49:30.372Z,7.96
2022-12-18T16:51:57.120Z,7.95
2022-12-18T16:54:24.114Z,7.95
2022-12-18T16:56:52.153Z,7.96
2022-12-18T16:59:19.917Z,7.96
2022-12-18T17:01:47.582Z,7.95
2022-12-18T17:04:15.663Z,7.96
2022-12-18T17:06:45.440Z,7.91
2022-12-18T17:09:16.975Z,7.90
2022-12-18T17:11:44.594Z,7.92
2022-12-18T17:14:15.245Z,7.93
2022-12-18T17:16:42.777Z,7.93
2022-12-18T17:19:16.607Z,7.95
2022-12-18T17:21:49.847Z,7.99
2022-12-18T17:24:17.064Z,8.01
2022-12-18T17:26:44.612Z,8.04
2022-12-18T17:29:17.340Z,8.08
2022-12-18T17:31:46.483Z,8.12
2022-12-18T17:34:14.348Z,8.17
2022-12-18T17:36:43.186Z,8.21
2022-12-18T17:39:18.754Z,8.27
2022-12-18T17:41:46.188Z,8.31
2022-12-18T17:44:13.320Z,8.33
2022-12-18T17:46:40.334Z,8.38
2022-12-18T17:49:07.161Z,8.37
2022-12-18T17:51:34.091Z,8.35
2022-12-18T17:54:00.873Z,8.34
2022-12-18T17:56:27.710Z,8.38
2022-12-18T17:58:54.451Z,8.39
2022-12-18T18:01:24.489Z,8.43
2022-12-18T18:03:53.922Z,8.43
2022-12-18T18:06:21.001Z,8.41
2022-12-18T18:08:48.119Z,8.44
2022-12-18T18:11:36.366Z,8.45
2022-12-18T18:14:05.937Z,8.44
2022-12-18T18:16:36.403Z,8.44
2022-12-18T18:19:06.772Z,8.45
2022-12-18T18:21:34.683Z,8.48
2022-12-18T18:24:03.205Z,8.53
2022-12-18T18:26:34.523Z,8.54
2022-12-18T18:29:03.957Z,8.54
2022-12-18T18:31:35.685Z,8.57
2022-12-18T18:34:08.334Z,8.60
2022-12-18T18:36:35.019Z,8.64
2022-12-18T18:39:02.294Z,8.65
2022-12-18T18:41:30.603Z,8.68
2022-12-18T18:44:00.119Z,8.69
2022-12-18T18:46:27.089Z,8.65
2022-12-18T18:48:55.216Z,8.68
2022-12-18T18:51:22.596Z,8.69
2022-12-18T18:53:50.954Z,8.73
2022-12-18T18:59:08.068Z,8.76
2022-12-18T19:01:35.015Z,8.76
2022-12-18T19:04:04.614Z,8.83
2022-12-18T19:06:31.602Z,8.88
2022-12-18T19:09:02.616Z,8.89
2022-12-18T19:11:47.980Z,8.91
2022-12-18T19:14:16.390Z,8.93
2022-12-18T19:16:45.432Z,8.93
2022-12-18T19:19:13.469Z,8.97
2022-12-18T19:21:40.551Z,9.01
2022-12-18T19:24:07.826Z,9.08
2022-12-18T19:26:37.531Z,9.16
2022-12-18T19:29:06.481Z,9.21
2022-12-18T19:31:35.999Z,9.23
2022-12-18T19:34:05.006Z,9.26
2022-12-18T19:36:33.418Z,9.28
2022-12-18T19:39:01.645Z,9.33
2022-12-18T19:41:31.247Z,9.34
2022-12-18T19:44:07.411Z,9.38
2022-12-18T19:46:35.986Z,9.40
2022-12-18T19:49:04.558Z,9.42
2022-12-18T19:51:32.702Z,9.43
2022-12-18T19:54:01.678Z,9.45
2022-12-18T19:56:34.443Z,9.47
2022-12-18T19:59:02.852Z,9.49
2022-12-18T20:01:30.580Z,9.52
2022-12-18T20:03:59.001Z,9.54
2022-12-18T20:06:36.285Z,9.55
2022-12-18T20:09:06.954Z,9.58
2022-12-18T20:11:39.644Z,9.63
2022-12-18T20:14:10.208Z,9.66
2022-12-18T20:16:37.000Z,9.68
2022-12-18T20:19:04.944Z,9.68
2022-12-18T20:21:31.816Z,9.70
2022-12-18T20:24:02.261Z,9.73
2022-12-18T20:26:29.395Z,9.72
2022-12-18T20:28:56.592Z,9.72
2022-12-18T20:31:24.381Z,9.69
2022-12-18T20:33:52.203Z,9.65
2022-12-18T20:36:24.611Z,9.60
2022-12-18T20:38:58.127Z,9.54
2022-12-18T20:41:31.678Z,9.51
2022-12-18T20:44:08.493Z,9.46
2022-12-18T20:46:48.175Z,9.41
2022-12-18T20:49:14.777Z,9.39
2022-12-18T20:51:41.500Z,9.35
2022-12-18T20:54:11.774Z,9.33
2022-12-18T20:56:38.694Z,9.30
2022-12-18T20:59:05.355Z,9.29
2022-12-18T21:01:33.447Z,9.28
2022-12-18T21:04:02.160Z,9.28
2022-12-18T21:06:28.834Z,9.27
2022-12-18T21:08:56.108Z,9.28
2022-12-18T21:11:41.064Z,9.29
2022-12-18T21:14:25.536Z,9.35
2022-12-18T21:16:55.002Z,9.37
2022-12-18T21:19:25.178Z,9.43
2022-12-18T21:21:56.620Z,9.47
2022-12-18T21:24:24.043Z,9.50
2022-12-18T21:26:51.659Z,9.53
2022-12-18T21:29:21.041Z,9.54
2022-12-18T21:31:48.594Z,9.56
2022-12-18T21:34:21.467Z,9.56
2022-12-18T21:36:48.637Z,9.54
2022-12-18T21:39:16.285Z,9.51
2022-12-18T21:42:02.710Z,9.47
2022-12-18T21:44:29.681Z,9.44
2022-12-18T21:47:02.435Z,9.40
2022-12-18T21:49:36.162Z,9.40
2022-12-18T21:52:02.926Z,9.41
2022-12-18T21:54:30.094Z,9.44
2022-12-18T21:57:05.033Z,9.45
2022-12-18T21:59:37.761Z,9.48
2022-12-18T22:02:13.480Z,9.48
2022-12-18T22:04:40.984Z,9.50
2022-12-18T22:07:08.632Z,9.51
2022-12-18T22:09:37.712Z,9.54
2022-12-18T22:12:05.256Z,9.57
2022-12-18T22:14:32.463Z,9.64
2022-12-18T22:16:59.116Z,9.76
2022-12-18T22:19:26.724Z,9.89
2022-12-18T22:21:54.254Z,9.99
2022-12-18T22:24:23.473Z,10.08
2022-12-18T22:26:52.934Z,10.12
2022-12-18T22:29:43.565Z,10.21
2022-12-18T22:32:16.979Z,10.31
2022-12-18T22:34:56.933Z,10.38
2022-12-18T22:37:26.220Z,10.43
2022-12-18T22:39:52.822Z,10.48
2022-12-18T22:42:19.775Z,10.49
2022-12-18T22:44:46.423Z,10.49
2022-12-18T22:47:15.666Z,10.47
2022-12-18T22:49:42.323Z,10.44
2022-12-18T22:52:09.547Z,10.40
2022-12-18T22:54:36.427Z,10.37
2022-12-18T22:57:03.243Z,10.34
2022-12-18T22:59:29.951Z,10.34
2022-12-18T23:01:59.060Z,10.33
2022-12-18T23:04:31.987Z,10.35
2022-12-18T23:07:07.522Z,10.35
2022-12-18T23:09:34.634Z,10.36
2022-12-18T23:12:01.890Z,10.37
2022-12-18T23:14:29.212Z,10.38
2022-12-18T23:16:56.434Z,10.41
2022-12-18T23:19:23.821Z,10.42
2022-12-18T23:21:51.336Z,10.42
2022-12-18T23:24:18.018Z,10.46
2022-12-18T23:26:44.636Z,10.49
2022-12-18T23:29:11.236Z,10.50
2022-12-18T23:31:39.855Z,10.49
2022-12-18T23:34:07.666Z,10.48
2022-12-18T23:36:43.873Z,10.45
2022-12-18T23:39:15.616Z,10.42
2022-12-18T23:41:55.485Z,10.40
2022-12-18T23:44:22.198Z,10.40
2022-12-18T23:46:48.929Z,10.38
2022-12-18T23:49:15.728Z,10.38
2022-12-18T23:51:42.441Z,10.43
2022-12-18T23:54:10.749Z,10.47
2022-12-18T23:56:37.666Z,10.50
2022-12-18T23:59:04.490Z,10.57
